South Hiram, Maine
Current Conditions -  °F | °C
As of 3:54 PM on Friday 19 Dec 2014 (Local Time) from KIZG Reporting Station
Clear Clear  
Wind Chill: 28°   Ceiling: Unl
Heat Index: 33°   Visibility: 10mi
Dew Point: 20°   Wind: 6mph
Humidity: 59%   Direction: 20°NNE
Pressure: 29.97"   Gusts: NA
Location:  43.8772°N, 70.8351°W
Report Text: KIZG 192054Z AUTO 02005KT 10SM CLR 01/M07 A2997 RMK AO2 SLP155 T00061067 53020
Loading
Personal Weather Stations






























Interactive Weather Map New forecast layout! Learn more

10-Day Weather Forecast

Advertisements
Track Severe Weather on mobile